Terminal Aerodrome Forecast
Issued by NWS Louisville, KY

Home | Current Version | Previous Version | Text Only | Print | Product List | Glossary On
Versions: 1 2 3 4 5 6 7 8 9 10 11 12
000
FTUS43 KLMK 111120
TAFLEX
TAF
KLEX 111120Z 1112/1212 19007KT P6SM FEW100
     FM111600 20012G20KT P6SM BKN150
     FM120400 27012KT P6SM BKN040
     FM120900 29013KT P6SM VCSH OVC027=

USA.gov is the U.S. government's official web portal to all federal, state and local government web resources and services.